sensor_id;sensor_type;location;lat;lon;timestamp;P1;durP1;ratioP1;P2;durP2;ratioP2
80508;SDS011;69838;52.602;13.434;2024-03-06T00:00:08;31.95;;;21.33;;
80508;SDS011;69838;52.602;13.434;2024-03-06T00:00:56;33.38;;;21.95;;
80508;SDS011;69838;52.602;13.434;2024-03-06T00:01:41;34.45;;;23.77;;
80508;SDS011;69838;52.602;13.434;2024-03-06T00:02:27;34.13;;;20.83;;
80508;SDS011;69838;52.602;13.434;2024-03-06T00:03:13;35.13;;;23.42;;
80508;SDS011;69838;52.602;13.434;2024-03-06T00:03:59;32.97;;;21.42;;
80508;SDS011;69838;52.602;13.434;2024-03-06T00:04:44;37.20;;;22.60;;
80508;SDS011;69838;52.602;13.434;2024-03-06T00:05:30;35.30;;;21.13;;
80508;SDS011;69838;52.602;13.434;2024-03-06T00:06:16;36.40;;;22.35;;
80508;SDS011;69838;52.602;13.434;2024-03-06T00:07:02;36.70;;;23.15;;
80508;SDS011;69838;52.602;13.434;2024-03-06T00:07:48;32.38;;;21.30;;
80508;SDS011;69838;52.602;13.434;2024-03-06T00:08:33;35.17;;;21.60;;
80508;SDS011;69838;52.602;13.434;2024-03-06T00:09:20;34.83;;;20.67;;
80508;SDS011;69838;52.602;13.434;2024-03-06T00:10:06;34.75;;;21.98;;
80508;SDS011;69838;52.602;13.434;2024-03-06T00:10:52;31.75;;;21.88;;
80508;SDS011;69838;52.602;13.434;2024-03-06T00:11:38;36.47;;;22.58;;
80508;SDS011;69838;52.602;13.434;2024-03-06T00:12:25;35.45;;;22.98;;
80508;SDS011;69838;52.602;13.434;2024-03-06T00:13:10;34.83;;;21.50;;
80508;SDS011;69838;52.602;13.434;2024-03-06T00:13:58;33.88;;;21.90;;
80508;SDS011;69838;52.602;13.434;2024-03-06T00:14:43;34.63;;;21.92;;
80508;SDS011;69838;52.602;13.434;2024-03-06T00:15:29;35.72;;;21.63;;
80508;SDS011;69838;52.602;13.434;2024-03-06T00:16:16;32.45;;;20.35;;
80508;SDS011;69838;52.602;13.434;2024-03-06T00:17:01;36.22;;;21.70;;
80508;SDS011;69838;52.602;13.434;2024-03-06T00:17:49;34.92;;;22.15;;
80508;SDS011;69838;52.602;13.434;2024-03-06T00:18:34;34.92;;;23.35;;
80508;SDS011;69838;52.602;13.434;2024-03-06T00:19:21;34.30;;;21.73;;
80508;SDS011;69838;52.602;13.434;2024-03-06T00:20:07;35.60;;;22.30;;
80508;SDS011;69838;52.602;13.434;2024-03-06T00:20:54;37.92;;;24.63;;
80508;SDS011;69838;52.602;13.434;2024-03-06T00:21:40;36.17;;;21.67;;
80508;SDS011;69838;52.602;13.434;2024-03-06T00:22:26;40.53;;;23.85;;
80508;SDS011;69838;52.602;13.434;2024-03-06T00:23:11;49.70;;;27.45;;
80508;SDS011;69838;52.602;13.434;2024-03-06T00:23:58;44.55;;;24.25;;
80508;SDS011;69838;52.602;13.434;2024-03-06T00:24:43;42.63;;;24.90;;
80508;SDS011;69838;52.602;13.434;2024-03-06T00:25:28;44.22;;;26.05;;
80508;SDS011;69838;52.602;13.434;2024-03-06T00:26:15;47.47;;;25.00;;
80508;SDS011;69838;52.602;13.434;2024-03-06T00:27:00;56.92;;;31.63;;
80508;SDS011;69838;52.602;13.434;2024-03-06T00:27:46;48.78;;;27.88;;
80508;SDS011;69838;52.602;13.434;2024-03-06T00:28:33;41.70;;;24.55;;
80508;SDS011;69838;52.602;13.434;2024-03-06T00:29:20;43.17;;;24.35;;
80508;SDS011;69838;52.602;13.434;2024-03-06T00:30:06;43.17;;;25.05;;
80508;SDS011;69838;52.602;13.434;2024-03-06T00:30:53;37.45;;;23.30;;
80508;SDS011;69838;52.602;13.434;2024-03-06T00:31:41;38.30;;;23.20;;
80508;SDS011;69838;52.602;13.434;2024-03-06T00:32:28;40.03;;;24.08;;
80508;SDS011;69838;52.602;13.434;2024-03-06T00:33:14;41.53;;;22.75;;
80508;SDS011;69838;52.602;13.434;2024-03-06T00:34:00;41.85;;;24.50;;
80508;SDS011;69838;52.602;13.434;2024-03-06T00:34:45;41.30;;;22.65;;
80508;SDS011;69838;52.602;13.434;2024-03-06T00:35:31;41.00;;;24.27;;
80508;SDS011;69838;52.602;13.434;2024-03-06T00:36:17;39.60;;;22.27;;
80508;SDS011;69838;52.602;13.434;2024-03-06T00:37:02;37.00;;;22.23;;
80508;SDS011;69838;52.602;13.434;2024-03-06T00:37:52;41.67;;;25.83;;
80508;SDS011;69838;52.602;13.434;2024-03-06T00:38:38;37.75;;;23.77;;
80508;SDS011;69838;52.602;13.434;2024-03-06T00:39:23;41.58;;;24.20;;
80508;SDS011;69838;52.602;13.434;2024-03-06T00:40:10;41.38;;;23.10;;
80508;SDS011;69838;52.602;13.434;2024-03-06T00:40:56;38.53;;;23.10;;
80508;SDS011;69838;52.602;13.434;2024-03-06T00:41:42;40.45;;;24.75;;
80508;SDS011;69838;52.602;13.434;2024-03-06T00:42:29;43.38;;;25.02;;
80508;SDS011;69838;52.602;13.434;2024-03-06T00:43:15;43.13;;;24.83;;
80508;SDS011;69838;52.602;13.434;2024-03-06T00:44:00;41.92;;;25.02;;
80508;SDS011;69838;52.602;13.434;2024-03-06T00:44:48;39.83;;;22.77;;
80508;SDS011;69838;52.602;13.434;2024-03-06T00:45:33;39.95;;;24.52;;
80508;SDS011;69838;52.602;13.434;2024-03-06T00:46:19;44.22;;;25.55;;
80508;SDS011;69838;52.602;13.434;2024-03-06T00:47:05;46.28;;;24.23;;
80508;SDS011;69838;52.602;13.434;2024-03-06T00:47:50;45.88;;;24.48;;
80508;SDS011;69838;52.602;13.434;2024-03-06T00:48:36;45.38;;;25.17;;
80508;SDS011;69838;52.602;13.434;2024-03-06T00:49:23;43.97;;;24.40;;
80508;SDS011;69838;52.602;13.434;2024-03-06T00:50:09;38.90;;;22.73;;
80508;SDS011;69838;52.602;13.434;2024-03-06T00:50:54;39.33;;;23.90;;
80508;SDS011;69838;52.602;13.434;2024-03-06T00:51:41;36.72;;;21.83;;
80508;SDS011;69838;52.602;13.434;2024-03-06T00:52:26;35.22;;;21.05;;
80508;SDS011;69838;52.602;13.434;2024-03-06T00:53:12;35.85;;;22.70;;
80508;SDS011;69838;52.602;13.434;2024-03-06T00:53:58;37.70;;;23.38;;
80508;SDS011;69838;52.602;13.434;2024-03-06T00:54:44;37.30;;;21.38;;
80508;SDS011;69838;52.602;13.434;2024-03-06T00:55:29;37.85;;;21.65;;
80508;SDS011;69838;52.602;13.434;2024-03-06T00:56:16;35.38;;;21.92;;
80508;SDS011;69838;52.602;13.434;2024-03-06T00:57:01;37.70;;;22.45;;
80508;SDS011;69838;52.602;13.434;2024-03-06T00:57:47;34.67;;;22.05;;
80508;SDS011;69838;52.602;13.434;2024-03-06T00:58:33;35.72;;;23.67;;
80508;SDS011;69838;52.602;13.434;2024-03-06T00:59:18;35.22;;;23.13;;
80508;SDS011;69838;52.602;13.434;2024-03-06T01:00:07;34.97;;;21.85;;
80508;SDS011;69838;52.602;13.434;2024-03-06T01:00:55;36.85;;;22.77;;
80508;SDS011;69838;52.602;13.434;2024-03-06T01:01:42;36.38;;;22.02;;
80508;SDS011;69838;52.602;13.434;2024-03-06T01:02:29;38.53;;;22.67;;
80508;SDS011;69838;52.602;13.434;2024-03-06T01:03:14;36.85;;;22.92;;
80508;SDS011;69838;52.602;13.434;2024-03-06T01:04:00;40.75;;;22.92;;
80508;SDS011;69838;52.602;13.434;2024-03-06T01:04:47;38.55;;;24.35;;
80508;SDS011;69838;52.602;13.434;2024-03-06T01:05:32;37.38;;;21.50;;
80508;SDS011;69838;52.602;13.434;2024-03-06T01:06:18;36.58;;;23.05;;
80508;SDS011;69838;52.602;13.434;2024-03-06T01:07:05;38.03;;;21.83;;
80508;SDS011;69838;52.602;13.434;2024-03-06T01:07:50;34.97;;;20.77;;
80508;SDS011;69838;52.602;13.434;2024-03-06T01:08:35;33.78;;;22.55;;
80508;SDS011;69838;52.602;13.434;2024-03-06T01:09:22;32.45;;;22.45;;
80508;SDS011;69838;52.602;13.434;2024-03-06T01:10:08;34.63;;;21.23;;
80508;SDS011;69838;52.602;13.434;2024-03-06T01:10:54;35.05;;;20.67;;
80508;SDS011;69838;52.602;13.434;2024-03-06T01:11:40;34.25;;;20.45;;
80508;SDS011;69838;52.602;13.434;2024-03-06T01:12:26;36.05;;;22.95;;
80508;SDS011;69838;52.602;13.434;2024-03-06T01:13:13;37.00;;;22.50;;
80508;SDS011;69838;52.602;13.434;2024-03-06T01:13:58;34.95;;;20.75;;
80508;SDS011;69838;52.602;13.434;2024-03-06T01:14:44;34.60;;;22.02;;
80508;SDS011;69838;52.602;13.434;2024-03-06T01:15:32;38.30;;;23.05;;
80508;SDS011;69838;52.602;13.434;2024-03-06T01:16:17;34.40;;;22.13;;
80508;SDS011;69838;52.602;13.434;2024-03-06T01:17:03;35.55;;;22.67;;
80508;SDS011;69838;52.602;13.434;2024-03-06T01:17:50;34.45;;;21.52;;
80508;SDS011;69838;52.602;13.434;2024-03-06T01:18:35;37.55;;;21.98;;
80508;SDS011;69838;52.602;13.434;2024-03-06T01:19:21;34.55;;;21.30;;
80508;SDS011;69838;52.602;13.434;2024-03-06T01:20:08;39.53;;;20.92;;
80508;SDS011;69838;52.602;13.434;2024-03-06T01:20:54;35.33;;;20.55;;
80508;SDS011;69838;52.602;13.434;2024-03-06T01:21:40;34.80;;;20.73;;
80508;SDS011;69838;52.602;13.434;2024-03-06T01:22:27;36.10;;;22.05;;
80508;SDS011;69838;52.602;13.434;2024-03-06T01:23:12;36.88;;;23.45;;
80508;SDS011;69838;52.602;13.434;2024-03-06T01:23:58;34.67;;;22.10;;
80508;SDS011;69838;52.602;13.434;2024-03-06T01:24:44;36.05;;;21.02;;
80508;SDS011;69838;52.602;13.434;2024-03-06T01:25:30;36.42;;;21.80;;
80508;SDS011;69838;52.602;13.434;2024-03-06T01:26:15;35.22;;;21.35;;
80508;SDS011;69838;52.602;13.434;2024-03-06T01:27:01;35.40;;;21.40;;
80508;SDS011;69838;52.602;13.434;2024-03-06T01:27:47;34.05;;;21.75;;
80508;SDS011;69838;52.602;13.434;2024-03-06T01:28:33;33.33;;;19.90;;
80508;SDS011;69838;52.602;13.434;2024-03-06T01:29:19;32.83;;;21.08;;
80508;SDS011;69838;52.602;13.434;2024-03-06T01:30:05;34.67;;;20.58;;
80508;SDS011;69838;52.602;13.434;2024-03-06T01:30:52;33.03;;;20.80;;
80508;SDS011;69838;52.602;13.434;2024-03-06T01:31:39;32.58;;;19.60;;
80508;SDS011;69838;52.602;13.434;2024-03-06T01:32:24;34.50;;;19.67;;
80508;SDS011;69838;52.602;13.434;2024-03-06T01:33:10;32.30;;;21.00;;
80508;SDS011;69838;52.602;13.434;2024-03-06T01:33:56;35.67;;;21.27;;
80508;SDS011;69838;52.602;13.434;2024-03-06T01:34:42;32.53;;;19.40;;
80508;SDS011;69838;52.602;13.434;2024-03-06T01:35:28;33.97;;;19.40;;
80508;SDS011;69838;52.602;13.434;2024-03-06T01:36:14;34.35;;;20.55;;
80508;SDS011;69838;52.602;13.434;2024-03-06T01:37:00;31.52;;;18.75;;
80508;SDS011;69838;52.602;13.434;2024-03-06T01:37:45;34.55;;;19.67;;
80508;SDS011;69838;52.602;13.434;2024-03-06T01:38:31;33.15;;;19.15;;
80508;SDS011;69838;52.602;13.434;2024-03-06T01:39:17;32.58;;;19.00;;
80508;SDS011;69838;52.602;13.434;2024-03-06T01:40:03;33.97;;;19.63;;
80508;SDS011;69838;52.602;13.434;2024-03-06T01:40:50;34.65;;;20.13;;
80508;SDS011;69838;52.602;13.434;2024-03-06T01:41:35;33.13;;;19.30;;
80508;SDS011;69838;52.602;13.434;2024-03-06T01:42:21;35.90;;;21.40;;
80508;SDS011;69838;52.602;13.434;2024-03-06T01:43:16;29.83;;;18.73;;
80508;SDS011;69838;52.602;13.434;2024-03-06T01:44:03;33.42;;;20.98;;
80508;SDS011;69838;52.602;13.434;2024-03-06T01:44:49;34.50;;;21.30;;
80508;SDS011;69838;52.602;13.434;2024-03-06T01:45:35;34.85;;;20.40;;
80508;SDS011;69838;52.602;13.434;2024-03-06T01:46:23;32.72;;;20.02;;
80508;SDS011;69838;52.602;13.434;2024-03-06T01:47:09;32.85;;;20.02;;
80508;SDS011;69838;52.602;13.434;2024-03-06T01:47:55;32.25;;;19.65;;
80508;SDS011;69838;52.602;13.434;2024-03-06T01:48:41;33.95;;;19.63;;
80508;SDS011;69838;52.602;13.434;2024-03-06T01:49:27;38.35;;;20.95;;
80508;SDS011;69838;52.602;13.434;2024-03-06T01:50:13;35.88;;;20.25;;
80508;SDS011;69838;52.602;13.434;2024-03-06T01:50:59;32.13;;;20.90;;
80508;SDS011;69838;52.602;13.434;2024-03-06T01:51:51;33.00;;;19.33;;
80508;SDS011;69838;52.602;13.434;2024-03-06T01:52:39;34.78;;;19.52;;
80508;SDS011;69838;52.602;13.434;2024-03-06T01:53:26;31.10;;;19.30;;
80508;SDS011;69838;52.602;13.434;2024-03-06T01:54:15;34.92;;;20.27;;
80508;SDS011;69838;52.602;13.434;2024-03-06T01:55:01;34.58;;;20.15;;
80508;SDS011;69838;52.602;13.434;2024-03-06T01:55:46;32.15;;;18.83;;
80508;SDS011;69838;52.602;13.434;2024-03-06T01:56:34;32.72;;;18.50;;
80508;SDS011;69838;52.602;13.434;2024-03-06T01:57:20;32.85;;;20.17;;
80508;SDS011;69838;52.602;13.434;2024-03-06T01:58:06;33.60;;;18.92;;
80508;SDS011;69838;52.602;13.434;2024-03-06T01:58:53;34.55;;;19.67;;
80508;SDS011;69838;52.602;13.434;2024-03-06T01:59:39;32.17;;;19.23;;
80508;SDS011;69838;52.602;13.434;2024-03-06T02:00:25;33.05;;;21.63;;
80508;SDS011;69838;52.602;13.434;2024-03-06T02:01:12;32.25;;;19.35;;
80508;SDS011;69838;52.602;13.434;2024-03-06T02:01:59;31.63;;;18.35;;
80508;SDS011;69838;52.602;13.434;2024-03-06T02:02:46;32.50;;;18.90;;
80508;SDS011;69838;52.602;13.434;2024-03-06T02:03:32;33.30;;;19.40;;
80508;SDS011;69838;52.602;13.434;2024-03-06T02:04:18;34.22;;;19.98;;
80508;SDS011;69838;52.602;13.434;2024-03-06T02:05:04;32.83;;;17.50;;
80508;SDS011;69838;52.602;13.434;2024-03-06T02:05:51;33.53;;;18.67;;
80508;SDS011;69838;52.602;13.434;2024-03-06T02:06:38;35.25;;;21.80;;
80508;SDS011;69838;52.602;13.434;2024-03-06T02:07:24;33.08;;;17.98;;
80508;SDS011;69838;52.602;13.434;2024-03-06T02:08:10;30.90;;;19.75;;
80508;SDS011;69838;52.602;13.434;2024-03-06T02:08:55;34.78;;;18.80;;
80508;SDS011;69838;52.602;13.434;2024-03-06T02:09:41;30.83;;;18.73;;
80508;SDS011;69838;52.602;13.434;2024-03-06T02:10:30;31.77;;;18.05;;
80508;SDS011;69838;52.602;13.434;2024-03-06T02:11:15;32.35;;;19.80;;
80508;SDS011;69838;52.602;13.434;2024-03-06T02:12:02;31.77;;;18.80;;
80508;SDS011;69838;52.602;13.434;2024-03-06T02:12:48;32.83;;;18.63;;
80508;SDS011;69838;52.602;13.434;2024-03-06T02:13:34;34.55;;;19.90;;
80508;SDS011;69838;52.602;13.434;2024-03-06T02:14:20;34.45;;;19.58;;
80508;SDS011;69838;52.602;13.434;2024-03-06T02:15:06;32.95;;;19.38;;
80508;SDS011;69838;52.602;13.434;2024-03-06T02:15:53;35.03;;;20.15;;
80508;SDS011;69838;52.602;13.434;2024-03-06T02:16:40;31.27;;;18.58;;
80508;SDS011;69838;52.602;13.434;2024-03-06T02:17:27;34.80;;;19.67;;
80508;SDS011;69838;52.602;13.434;2024-03-06T02:18:14;32.85;;;18.75;;
80508;SDS011;69838;52.602;13.434;2024-03-06T02:18:59;32.42;;;17.48;;
80508;SDS011;69838;52.602;13.434;2024-03-06T02:19:45;35.33;;;20.10;;
80508;SDS011;69838;52.602;13.434;2024-03-06T02:20:32;34.55;;;20.27;;
80508;SDS011;69838;52.602;13.434;2024-03-06T02:21:19;30.40;;;17.88;;
80508;SDS011;69838;52.602;13.434;2024-03-06T02:22:06;35.70;;;20.27;;
80508;SDS011;69838;52.602;13.434;2024-03-06T02:22:51;30.95;;;20.83;;
80508;SDS011;69838;52.602;13.434;2024-03-06T02:23:37;31.65;;;19.50;;
80508;SDS011;69838;52.602;13.434;2024-03-06T02:24:23;33.38;;;18.70;;
80508;SDS011;69838;52.602;13.434;2024-03-06T02:25:09;31.42;;;18.67;;
80508;SDS011;69838;52.602;13.434;2024-03-06T02:25:55;30.42;;;18.27;;
80508;SDS011;69838;52.602;13.434;2024-03-06T02:26:41;33.03;;;19.70;;
80508;SDS011;69838;52.602;13.434;2024-03-06T02:27:26;32.25;;;18.70;;
80508;SDS011;69838;52.602;13.434;2024-03-06T02:28:12;31.73;;;19.55;;
80508;SDS011;69838;52.602;13.434;2024-03-06T02:28:58;30.95;;;18.48;;
80508;SDS011;69838;52.602;13.434;2024-03-06T02:29:44;31.77;;;20.17;;
80508;SDS011;69838;52.602;13.434;2024-03-06T02:30:29;35.00;;;20.25;;
80508;SDS011;69838;52.602;13.434;2024-03-06T02:31:21;32.85;;;18.23;;
80508;SDS011;69838;52.602;13.434;2024-03-06T02:32:07;33.42;;;20.52;;
80508;SDS011;69838;52.602;13.434;2024-03-06T02:32:53;33.97;;;19.75;;
80508;SDS011;69838;52.602;13.434;2024-03-06T02:33:39;35.05;;;19.65;;
80508;SDS011;69838;52.602;13.434;2024-03-06T02:34:25;45.50;;;25.88;;
80508;SDS011;69838;52.602;13.434;2024-03-06T02:35:11;44.28;;;25.40;;
80508;SDS011;69838;52.602;13.434;2024-03-06T02:35:58;50.05;;;29.92;;
80508;SDS011;69838;52.602;13.434;2024-03-06T02:36:43;56.13;;;31.60;;
80508;SDS011;69838;52.602;13.434;2024-03-06T02:37:30;33.42;;;19.33;;
80508;SDS011;69838;52.602;13.434;2024-03-06T02:38:15;40.60;;;23.25;;
80508;SDS011;69838;52.602;13.434;2024-03-06T02:39:01;40.42;;;23.58;;
80508;SDS011;69838;52.602;13.434;2024-03-06T02:39:49;40.75;;;22.33;;
80508;SDS011;69838;52.602;13.434;2024-03-06T02:40:35;39.42;;;21.08;;
80508;SDS011;69838;52.602;13.434;2024-03-06T02:41:20;41.67;;;23.85;;
80508;SDS011;69838;52.602;13.434;2024-03-06T02:42:06;42.10;;;22.40;;
80508;SDS011;69838;52.602;13.434;2024-03-06T02:42:52;37.63;;;23.75;;
80508;SDS011;69838;52.602;13.434;2024-03-06T02:43:37;39.28;;;23.48;;
80508;SDS011;69838;52.602;13.434;2024-03-06T02:44:24;38.95;;;21.83;;
80508;SDS011;69838;52.602;13.434;2024-03-06T02:45:10;36.88;;;21.90;;
80508;SDS011;69838;52.602;13.434;2024-03-06T02:45:55;32.58;;;19.73;;
80508;SDS011;69838;52.602;13.434;2024-03-06T02:46:41;35.10;;;20.65;;
80508;SDS011;69838;52.602;13.434;2024-03-06T02:47:31;37.97;;;20.70;;
80508;SDS011;69838;52.602;13.434;2024-03-06T02:48:17;36.70;;;20.48;;
80508;SDS011;69838;52.602;13.434;2024-03-06T02:49:04;35.05;;;21.17;;
80508;SDS011;69838;52.602;13.434;2024-03-06T02:49:50;32.03;;;19.55;;
80508;SDS011;69838;52.602;13.434;2024-03-06T02:50:36;33.78;;;20.08;;
80508;SDS011;69838;52.602;13.434;2024-03-06T02:51:24;31.13;;;18.23;;
80508;SDS011;69838;52.602;13.434;2024-03-06T02:52:09;30.65;;;17.95;;
80508;SDS011;69838;52.602;13.434;2024-03-06T02:52:55;34.03;;;18.38;;
80508;SDS011;69838;52.602;13.434;2024-03-06T02:53:41;32.05;;;19.17;;
80508;SDS011;69838;52.602;13.434;2024-03-06T02:54:26;31.75;;;19.33;;
80508;SDS011;69838;52.602;13.434;2024-03-06T02:55:12;32.08;;;18.02;;
80508;SDS011;69838;52.602;13.434;2024-03-06T02:55:59;32.35;;;18.52;;
80508;SDS011;69838;52.602;13.434;2024-03-06T02:56:45;30.98;;;17.80;;
80508;SDS011;69838;52.602;13.434;2024-03-06T02:57:31;32.92;;;18.42;;
80508;SDS011;69838;52.602;13.434;2024-03-06T02:58:17;31.90;;;18.48;;
80508;SDS011;69838;52.602;13.434;2024-03-06T02:59:02;29.83;;;18.35;;
80508;SDS011;69838;52.602;13.434;2024-03-06T02:59:48;32.13;;;18.17;;
80508;SDS011;69838;52.602;13.434;2024-03-06T03:00:35;30.55;;;18.05;;
80508;SDS011;69838;52.602;13.434;2024-03-06T03:01:20;31.10;;;18.00;;
80508;SDS011;69838;52.602;13.434;2024-03-06T03:02:06;29.05;;;17.80;;
80508;SDS011;69838;52.602;13.434;2024-03-06T03:02:52;30.40;;;17.45;;
80508;SDS011;69838;52.602;13.434;2024-03-06T03:03:39;31.88;;;17.63;;
80508;SDS011;69838;52.602;13.434;2024-03-06T03:04:25;30.13;;;17.75;;
80508;SDS011;69838;52.602;13.434;2024-03-06T03:05:11;29.98;;;17.52;;
80508;SDS011;69838;52.602;13.434;2024-03-06T03:05:57;32.72;;;17.77;;
80508;SDS011;69838;52.602;13.434;2024-03-06T03:06:44;32.55;;;18.35;;
80508;SDS011;69838;52.602;13.434;2024-03-06T03:07:30;33.65;;;18.67;;
80508;SDS011;69838;52.602;13.434;2024-03-06T03:08:15;30.25;;;18.55;;
80508;SDS011;69838;52.602;13.434;2024-03-06T03:09:01;28.38;;;16.60;;
80508;SDS011;69838;52.602;13.434;2024-03-06T03:09:48;31.15;;;17.45;;
80508;SDS011;69838;52.602;13.434;2024-03-06T03:10:34;33.33;;;19.02;;
80508;SDS011;69838;52.602;13.434;2024-03-06T03:11:19;29.38;;;17.80;;
80508;SDS011;69838;52.602;13.434;2024-03-06T03:12:06;32.05;;;18.88;;
80508;SDS011;69838;52.602;13.434;2024-03-06T03:12:51;32.25;;;19.30;;
80508;SDS011;69838;52.602;13.434;2024-03-06T03:13:38;33.90;;;18.65;;
80508;SDS011;69838;52.602;13.434;2024-03-06T03:14:24;29.38;;;17.33;;
80508;SDS011;69838;52.602;13.434;2024-03-06T03:15:10;29.00;;;16.95;;
80508;SDS011;69838;52.602;13.434;2024-03-06T03:15:56;32.08;;;21.30;;
80508;SDS011;69838;52.602;13.434;2024-03-06T03:16:42;29.25;;;18.05;;
80508;SDS011;69838;52.602;13.434;2024-03-06T03:17:27;29.92;;;17.73;;
80508;SDS011;69838;52.602;13.434;2024-03-06T03:18:14;28.17;;;16.50;;
80508;SDS011;69838;52.602;13.434;2024-03-06T03:19:00;32.55;;;19.38;;
80508;SDS011;69838;52.602;13.434;2024-03-06T03:19:45;33.70;;;18.55;;
80508;SDS011;69838;52.602;13.434;2024-03-06T03:20:31;30.50;;;17.92;;
80508;SDS011;69838;52.602;13.434;2024-03-06T03:21:17;30.33;;;17.52;;
80508;SDS011;69838;52.602;13.434;2024-03-06T03:22:04;33.55;;;19.40;;
80508;SDS011;69838;52.602;13.434;2024-03-06T03:22:50;32.45;;;19.70;;
80508;SDS011;69838;52.602;13.434;2024-03-06T03:23:36;27.85;;;17.75;;
80508;SDS011;69838;52.602;13.434;2024-03-06T03:24:21;30.05;;;17.85;;
80508;SDS011;69838;52.602;13.434;2024-03-06T03:25:09;30.65;;;19.00;;
80508;SDS011;69838;52.602;13.434;2024-03-06T03:25:55;31.00;;;18.95;;
80508;SDS011;69838;52.602;13.434;2024-03-06T03:26:40;31.70;;;19.90;;
80508;SDS011;69838;52.602;13.434;2024-03-06T03:27:27;33.63;;;20.30;;
80508;SDS011;69838;52.602;13.434;2024-03-06T03:28:13;34.70;;;19.17;;
80508;SDS011;69838;52.602;13.434;2024-03-06T03:28:59;30.55;;;18.65;;
80508;SDS011;69838;52.602;13.434;2024-03-06T03:29:44;29.75;;;18.15;;
80508;SDS011;69838;52.602;13.434;2024-03-06T03:30:30;29.55;;;18.88;;
80508;SDS011;69838;52.602;13.434;2024-03-06T03:31:17;29.95;;;17.05;;
80508;SDS011;69838;52.602;13.434;2024-03-06T03:32:02;30.77;;;16.90;;
80508;SDS011;69838;52.602;13.434;2024-03-06T03:32:49;33.25;;;17.80;;
80508;SDS011;69838;52.602;13.434;2024-03-06T03:33:35;35.13;;;19.08;;
80508;SDS011;69838;52.602;13.434;2024-03-06T03:34:23;33.33;;;19.80;;
80508;SDS011;69838;52.602;13.434;2024-03-06T03:35:08;31.52;;;19.38;;
80508;SDS011;69838;52.602;13.434;2024-03-06T03:35:55;31.05;;;18.52;;
80508;SDS011;69838;52.602;13.434;2024-03-06T03:36:40;32.08;;;19.05;;
80508;SDS011;69838;52.602;13.434;2024-03-06T03:37:27;31.83;;;18.48;;
80508;SDS011;69838;52.602;13.434;2024-03-06T03:38:14;30.13;;;17.67;;
80508;SDS011;69838;52.602;13.434;2024-03-06T03:39:00;33.40;;;19.70;;
80508;SDS011;69838;52.602;13.434;2024-03-06T03:39:45;30.17;;;19.25;;
80508;SDS011;69838;52.602;13.434;2024-03-06T03:40:31;34.50;;;19.75;;
80508;SDS011;69838;52.602;13.434;2024-03-06T03:41:17;35.33;;;19.25;;
80508;SDS011;69838;52.602;13.434;2024-03-06T03:42:03;30.58;;;17.52;;
80508;SDS011;69838;52.602;13.434;2024-03-06T03:42:51;33.00;;;19.95;;
80508;SDS011;69838;52.602;13.434;2024-03-06T03:43:37;31.85;;;18.05;;
80508;SDS011;69838;52.602;13.434;2024-03-06T03:44:24;31.55;;;19.13;;
80508;SDS011;69838;52.602;13.434;2024-03-06T03:45:10;32.05;;;18.88;;
80508;SDS011;69838;52.602;13.434;2024-03-06T03:45:55;33.03;;;18.90;;
80508;SDS011;69838;52.602;13.434;2024-03-06T03:46:41;31.70;;;19.02;;
80508;SDS011;69838;52.602;13.434;2024-03-06T03:47:28;32.10;;;18.58;;
80508;SDS011;69838;52.602;13.434;2024-03-06T03:48:13;30.70;;;18.85;;
80508;SDS011;69838;52.602;13.434;2024-03-06T03:49:01;28.95;;;16.60;;
80508;SDS011;69838;52.602;13.434;2024-03-06T03:49:47;34.28;;;18.00;;
80508;SDS011;69838;52.602;13.434;2024-03-06T03:50:33;32.58;;;18.02;;
80508;SDS011;69838;52.602;13.434;2024-03-06T03:51:18;31.70;;;18.05;;
80508;SDS011;69838;52.602;13.434;2024-03-06T03:52:04;30.45;;;18.02;;
80508;SDS011;69838;52.602;13.434;2024-03-06T03:52:52;33.95;;;18.10;;
80508;SDS011;69838;52.602;13.434;2024-03-06T03:53:38;32.80;;;19.48;;
80508;SDS011;69838;52.602;13.434;2024-03-06T03:54:24;34.10;;;19.00;;
80508;SDS011;69838;52.602;13.434;2024-03-06T03:55:10;31.13;;;19.40;;
80508;SDS011;69838;52.602;13.434;2024-03-06T03:55:56;32.08;;;18.00;;
80508;SDS011;69838;52.602;13.434;2024-03-06T03:56:41;32.65;;;17.95;;
80508;SDS011;69838;52.602;13.434;2024-03-06T03:57:28;31.92;;;18.73;;
80508;SDS011;69838;52.602;13.434;2024-03-06T03:58:13;30.15;;;17.35;;
80508;SDS011;69838;52.602;13.434;2024-03-06T03:58:59;33.08;;;19.45;;
80508;SDS011;69838;52.602;13.434;2024-03-06T03:59:47;37.00;;;19.45;;
80508;SDS011;69838;52.602;13.434;2024-03-06T04:00:32;30.30;;;18.17;;
80508;SDS011;69838;52.602;13.434;2024-03-06T04:01:17;33.28;;;18.17;;
80508;SDS011;69838;52.602;13.434;2024-03-06T04:02:04;32.10;;;18.05;;
80508;SDS011;69838;52.602;13.434;2024-03-06T04:02:49;32.97;;;18.55;;
80508;SDS011;69838;52.602;13.434;2024-03-06T04:03:35;30.65;;;17.73;;
80508;SDS011;69838;52.602;13.434;2024-03-06T04:04:21;32.97;;;18.75;;
80508;SDS011;69838;52.602;13.434;2024-03-06T04:05:07;32.63;;;18.35;;
80508;SDS011;69838;52.602;13.434;2024-03-06T04:05:52;34.30;;;18.13;;
80508;SDS011;69838;52.602;13.434;2024-03-06T04:06:39;31.90;;;18.17;;
80508;SDS011;69838;52.602;13.434;2024-03-06T04:07:24;30.85;;;18.08;;
80508;SDS011;69838;52.602;13.434;2024-03-06T04:08:12;33.60;;;18.58;;
80508;SDS011;69838;52.602;13.434;2024-03-06T04:08:59;30.23;;;17.17;;
80508;SDS011;69838;52.602;13.434;2024-03-06T04:09:44;30.15;;;17.42;;
80508;SDS011;69838;52.602;13.434;2024-03-06T04:10:29;31.65;;;16.83;;
80508;SDS011;69838;52.602;13.434;2024-03-06T04:11:16;30.75;;;17.00;;
80508;SDS011;69838;52.602;13.434;2024-03-06T04:12:01;33.80;;;19.02;;
80508;SDS011;69838;52.602;13.434;2024-03-06T04:12:47;30.48;;;18.17;;
80508;SDS011;69838;52.602;13.434;2024-03-06T04:13:35;30.23;;;18.08;;
80508;SDS011;69838;52.602;13.434;2024-03-06T04:14:21;31.38;;;17.88;;
80508;SDS011;69838;52.602;13.434;2024-03-06T04:15:07;32.75;;;17.00;;
80508;SDS011;69838;52.602;13.434;2024-03-06T04:15:54;33.17;;;17.83;;
80508;SDS011;69838;52.602;13.434;2024-03-06T04:16:40;31.30;;;17.60;;
80508;SDS011;69838;52.602;13.434;2024-03-06T04:17:26;30.48;;;17.13;;
80508;SDS011;69838;52.602;13.434;2024-03-06T04:18:12;33.45;;;18.45;;
80508;SDS011;69838;52.602;13.434;2024-03-06T04:18:57;30.83;;;17.13;;
80508;SDS011;69838;52.602;13.434;2024-03-06T04:19:43;34.58;;;19.70;;
80508;SDS011;69838;52.602;13.434;2024-03-06T04:20:30;34.88;;;18.98;;
80508;SDS011;69838;52.602;13.434;2024-03-06T04:21:15;32.70;;;17.63;;
80508;SDS011;69838;52.602;13.434;2024-03-06T04:22:02;32.50;;;19.13;;
80508;SDS011;69838;52.602;13.434;2024-03-06T04:22:48;32.42;;;18.33;;
80508;SDS011;69838;52.602;13.434;2024-03-06T04:23:37;32.30;;;18.17;;
80508;SDS011;69838;52.602;13.434;2024-03-06T04:24:22;30.20;;;17.27;;
80508;SDS011;69838;52.602;13.434;2024-03-06T04:25:09;31.38;;;18.92;;
80508;SDS011;69838;52.602;13.434;2024-03-06T04:25:54;31.25;;;18.20;;